createdAt,value
2018-05-24T00:00:10.225Z,6.57
2018-05-24T00:02:37.723Z,4.60
2018-05-24T00:05:05.358Z,4.87
2018-05-24T00:07:32.906Z,5.27
2018-05-24T00:10:00.454Z,6.37
2018-05-24T00:12:27.989Z,5.10
2018-05-24T00:14:55.495Z,5.17
2018-05-24T00:17:23.045Z,7.13
2018-05-24T00:19:50.570Z,6.63
2018-05-24T00:22:18.091Z,5.00
2018-05-24T00:24:45.608Z,5.97
2018-05-24T00:27:13.130Z,6.03
2018-05-24T00:29:41.414Z,5.97
2018-05-24T00:32:08.938Z,6.53
2018-05-24T00:34:36.498Z,5.20
2018-05-24T00:37:03.996Z,6.70
2018-05-24T00:39:31.491Z,6.83
2018-05-24T00:41:59.030Z,5.37
2018-05-24T00:44:26.532Z,7.23
2018-05-24T00:46:54.031Z,6.23
2018-05-24T00:49:22.311Z,5.47
2018-05-24T00:51:49.814Z,7.17
2018-05-24T00:54:17.345Z,7.40
2018-05-24T00:56:44.854Z,7.03
2018-05-24T00:59:12.382Z,7.40
2018-05-24T01:01:39.881Z,7.13
2018-05-24T01:04:07.402Z,5.73
2018-05-24T01:06:34.922Z,11.53
2018-05-24T01:09:02.462Z,7.87
2018-05-24T01:11:29.980Z,7.70
2018-05-24T01:13:57.508Z,5.87
2018-05-24T01:16:25.050Z,6.50
2018-05-24T01:18:52.576Z,6.80
2018-05-24T01:21:20.086Z,7.13
2018-05-24T01:23:47.601Z,7.00
2018-05-24T01:26:15.129Z,5.93
2018-05-24T01:28:42.655Z,7.53
2018-05-24T01:31:10.208Z,9.03
2018-05-24T01:33:38.713Z,5.97
2018-05-24T01:36:06.209Z,5.97
2018-05-24T01:38:33.720Z,6.53
2018-05-24T01:41:01.241Z,6.03
2018-05-24T01:43:28.875Z,5.83
2018-05-24T01:45:56.398Z,7.13
2018-05-24T01:48:23.912Z,8.07
2018-05-24T01:50:51.421Z,6.30
2018-05-24T01:53:18.927Z,7.40
2018-05-24T01:55:46.451Z,6.67
2018-05-24T01:58:13.948Z,6.10
2018-05-24T02:00:41.462Z,6.50
2018-05-24T02:03:08.958Z,5.23
2018-05-24T02:05:37.250Z,5.70
2018-05-24T02:08:04.751Z,8.43
2018-05-24T02:10:32.250Z,6.30
2018-05-24T02:12:59.832Z,7.33
2018-05-24T02:15:27.817Z,5.83
2018-05-24T02:17:55.340Z,8.63
2018-05-24T02:20:23.630Z,5.80
2018-05-24T02:22:51.902Z,6.17
2018-05-24T02:25:19.402Z,6.27
2018-05-24T02:27:46.909Z,5.43
2018-05-24T02:30:14.484Z,6.50
2018-05-24T02:32:42.010Z,5.47
2018-05-24T02:35:09.531Z,5.60
2018-05-24T02:37:37.062Z,6.90
2018-05-24T02:40:05.331Z,10.10
2018-05-24T02:42:33.605Z,5.53
2018-05-24T02:45:01.136Z,6.80
2018-05-24T02:47:28.681Z,8.53
2018-05-24T02:49:56.183Z,5.30
2018-05-24T02:52:23.741Z,6.50
2018-05-24T02:54:51.303Z,6.57
2018-05-24T02:57:18.816Z,5.00
2018-05-24T02:59:46.339Z,5.17
2018-05-24T03:02:13.858Z,6.87
2018-05-24T03:04:41.379Z,4.97
2018-05-24T03:07:08.914Z,5.30
2018-05-24T03:09:38.128Z,5.67
2018-05-24T03:12:05.626Z,5.20
2018-05-24T03:14:33.170Z,5.53
2018-05-24T03:17:00.706Z,5.73
2018-05-24T03:19:28.209Z,7.33
2018-05-24T03:21:55.740Z,6.37
2018-05-24T03:24:23.250Z,5.70
2018-05-24T03:26:50.794Z,5.80
2018-05-24T03:29:18.298Z,7.10
2018-05-24T03:31:46.566Z,5.17
2018-05-24T03:34:14.873Z,5.17
2018-05-24T03:36:42.382Z,5.57
2018-05-24T03:39:09.882Z,6.00
2018-05-24T03:41:37.467Z,5.27
2018-05-24T03:44:04.977Z,5.20
2018-05-24T03:46:32.487Z,7.07
2018-05-24T03:49:00.025Z,6.30
2018-05-24T03:51:27.534Z,5.73
2018-05-24T03:53:55.031Z,4.47
2018-05-24T03:56:23.331Z,6.20
2018-05-24T03:58:50.834Z,5.47
2018-05-24T04:04:33.942Z,5.10
2018-05-24T04:07:01.476Z,5.70
2018-05-24T04:09:29.121Z,6.10
2018-05-24T04:11:56.630Z,6.30
2018-05-24T04:14:24.178Z,5.00
2018-05-24T04:16:51.675Z,5.37
2018-05-24T04:19:19.230Z,6.57
2018-05-24T04:21:46.778Z,5.33
2018-05-24T04:24:14.280Z,5.43
2018-05-24T04:26:41.788Z,4.97
2018-05-24T04:29:09.314Z,5.23
2018-05-24T04:31:37.594Z,5.03
2018-05-24T04:34:05.866Z,5.43
2018-05-24T04:36:33.426Z,5.00
2018-05-24T04:39:01.693Z,8.43
2018-05-24T04:41:29.202Z,5.10
2018-05-24T04:43:56.744Z,4.87
2018-05-24T04:46:24.250Z,5.43
2018-05-24T04:48:51.757Z,4.93
2018-05-24T04:51:20.070Z,9.07
2018-05-24T04:53:47.580Z,5.43
2018-05-24T04:56:15.147Z,5.53
2018-05-24T04:58:42.681Z,5.23
2018-05-24T05:01:10.191Z,6.20
2018-05-24T05:03:39.158Z,6.25
2018-05-24T05:06:07.463Z,4.67
2018-05-24T05:08:35.001Z,6.33
2018-05-24T05:11:03.294Z,5.63
2018-05-24T05:13:30.993Z,6.57
2018-05-24T05:15:58.382Z,7.33
2018-05-24T05:18:25.899Z,3.87
2018-05-24T05:20:53.562Z,7.00
2018-05-24T05:23:21.178Z,4.47
2018-05-24T05:25:48.622Z,5.67
2018-05-24T05:28:16.147Z,5.50
2018-05-24T05:30:43.685Z,5.47
2018-05-24T05:33:11.202Z,6.03
2018-05-24T05:35:38.722Z,6.27
2018-05-24T05:38:06.301Z,4.47
2018-05-24T05:40:33.798Z,5.60
2018-05-24T05:43:01.306Z,5.17
2018-05-24T05:45:28.812Z,6.17
2018-05-24T05:47:56.325Z,6.57
2018-05-24T05:50:23.840Z,4.63
2018-05-24T05:52:51.347Z,6.03
2018-05-24T05:55:18.887Z,6.40
2018-05-24T05:57:46.389Z,8.87
2018-05-24T06:00:13.895Z,7.50
2018-05-24T06:02:41.458Z,5.63
2018-05-24T06:05:08.989Z,8.07
2018-05-24T06:07:36.490Z,5.83
2018-05-24T06:10:04.021Z,8.97
2018-05-24T06:12:31.534Z,6.07
2018-05-24T06:14:59.038Z,6.03
2018-05-24T06:17:26.578Z,7.80
2018-05-24T06:19:54.079Z,8.57
2018-05-24T06:22:22.341Z,7.60
2018-05-24T06:24:49.880Z,9.07
2018-05-24T06:27:17.377Z,6.73
2018-05-24T06:29:44.906Z,7.50
2018-05-24T06:32:12.440Z,7.23
2018-05-24T06:34:39.946Z,7.63
2018-05-24T06:37:07.527Z,7.50
2018-05-24T06:39:35.038Z,9.40
2018-05-24T06:42:02.564Z,9.27
2018-05-24T06:44:30.074Z,8.77
2018-05-24T06:46:57.610Z,12.50
2018-05-24T06:49:25.144Z,8.23
2018-05-24T06:51:52.652Z,8.63
2018-05-24T06:54:20.192Z,9.90
2018-05-24T06:56:47.681Z,8.27
2018-05-24T06:59:15.178Z,8.43
2018-05-24T07:01:42.741Z,10.77
2018-05-24T07:04:10.262Z,7.07
2018-05-24T07:06:38.685Z,8.37
2018-05-24T07:09:07.031Z,7.37
2018-05-24T07:11:34.561Z,7.30
2018-05-24T07:14:02.062Z,9.67
2018-05-24T07:16:29.585Z,7.53
2018-05-24T07:18:57.118Z,6.43
2018-05-24T07:21:24.631Z,10.80
2018-05-24T07:23:52.888Z,7.43
2018-05-24T07:26:20.446Z,7.10
2018-05-24T07:28:48.012Z,8.60
2018-05-24T07:31:15.597Z,11.80
2018-05-24T07:33:43.877Z,8.77
2018-05-24T07:36:12.143Z,6.83
2018-05-24T07:38:40.430Z,8.47
2018-05-24T07:41:07.966Z,9.43
2018-05-24T07:43:35.467Z,7.43
2018-05-24T07:46:03.003Z,9.23
2018-05-24T07:48:30.517Z,8.30
2018-05-24T07:50:58.038Z,7.97
2018-05-24T07:53:26.327Z,8.03
2018-05-24T07:55:53.896Z,8.10
2018-05-24T07:58:22.178Z,8.03
2018-05-24T08:00:49.692Z,8.23
2018-05-24T08:03:17.241Z,8.60
2018-05-24T08:05:44.840Z,10.80
2018-05-24T08:08:12.391Z,11.40
2018-05-24T08:10:40.701Z,8.30
2018-05-24T08:13:08.207Z,9.30
2018-05-24T08:15:35.746Z,9.60
2018-05-24T08:18:03.285Z,9.10
2018-05-24T08:20:30.798Z,8.37
2018-05-24T08:22:58.297Z,7.87
2018-05-24T08:25:25.826Z,7.23
2018-05-24T08:27:54.099Z,9.63
2018-05-24T08:30:21.602Z,8.90
2018-05-24T08:32:49.198Z,9.40
2018-05-24T08:35:16.696Z,8.50
2018-05-24T08:37:44.194Z,9.07
2018-05-24T08:40:11.717Z,9.87
2018-05-24T08:42:39.247Z,9.90
2018-05-24T08:45:06.762Z,11.77
2018-05-24T08:47:34.338Z,11.90
2018-05-24T08:50:01.856Z,9.67
2018-05-24T08:52:29.368Z,9.80
2018-05-24T08:54:56.898Z,9.87
2018-05-24T08:57:24.437Z,9.57
2018-05-24T08:59:51.941Z,9.63
2018-05-24T09:02:19.464Z,8.77
2018-05-24T09:04:46.977Z,8.73
2018-05-24T09:07:14.545Z,9.30
2018-05-24T09:09:42.094Z,8.87
2018-05-24T09:12:09.615Z,7.47
2018-05-24T09:14:37.171Z,12.07
2018-05-24T09:17:04.674Z,12.73
2018-05-24T09:19:32.193Z,10.10
2018-05-24T09:21:59.725Z,9.40
2018-05-24T09:24:27.238Z,9.60
2018-05-24T09:26:54.733Z,10.33
2018-05-24T09:29:22.327Z,9.57
2018-05-24T09:31:49.794Z,10.73
2018-05-24T09:34:17.303Z,9.50
2018-05-24T09:36:44.822Z,10.57
2018-05-24T09:39:12.329Z,9.50
2018-05-24T09:41:39.837Z,8.27
2018-05-24T09:44:07.394Z,10.33
2018-05-24T09:46:34.909Z,13.00
2018-05-24T09:49:02.434Z,10.13
2018-05-24T09:51:29.967Z,10.33
2018-05-24T09:53:57.496Z,9.73
2018-05-24T09:56:25.005Z,11.07
2018-05-24T09:58:52.570Z,11.73
2018-05-24T10:01:20.110Z,12.07
2018-05-24T10:03:48.386Z,11.60
2018-05-24T10:06:16.691Z,13.43
2018-05-24T10:08:44.207Z,11.83
2018-05-24T10:11:12.482Z,12.63
2018-05-24T10:13:40.015Z,11.23
2018-05-24T10:16:07.623Z,11.03
2018-05-24T10:18:35.083Z,10.57
2018-05-24T10:21:03.370Z,10.87
2018-05-24T10:23:30.996Z,12.77
2018-05-24T10:25:58.510Z,9.73
2018-05-24T10:28:26.005Z,9.77
2018-05-24T10:30:53.520Z,9.77
2018-05-24T10:33:21.032Z,10.30
2018-05-24T10:35:48.588Z,10.33
2018-05-24T10:38:16.106Z,10.67
2018-05-24T10:40:43.622Z,7.83
2018-05-24T10:43:11.212Z,10.47
2018-05-24T10:45:39.042Z,10.82
2018-05-24T10:48:06.558Z,9.07
2018-05-24T10:50:34.083Z,10.50
2018-05-24T10:53:01.630Z,11.70
2018-05-24T10:55:29.135Z,10.90
2018-05-24T10:57:56.707Z,9.60
2018-05-24T11:00:24.202Z,9.17
2018-05-24T11:02:51.738Z,10.27
2018-05-24T11:05:19.240Z,9.90
2018-05-24T11:07:46.748Z,9.07
2018-05-24T11:10:14.270Z,9.33
2018-05-24T11:12:41.761Z,6.77
2018-05-24T11:15:09.277Z,9.03
2018-05-24T11:17:36.865Z,11.50
2018-05-24T11:20:04.403Z,12.30
2018-05-24T11:22:31.934Z,10.90
2018-05-24T11:25:00.204Z,10.60
2018-05-24T11:27:27.749Z,10.03
2018-05-24T11:29:55.265Z,11.30
2018-05-24T11:32:22.766Z,12.47
2018-05-24T11:34:50.301Z,9.37
2018-05-24T11:37:18.581Z,13.43
2018-05-24T11:39:46.117Z,13.40
2018-05-24T11:42:13.688Z,10.33
2018-05-24T11:44:41.966Z,10.73
2018-05-24T11:47:10.234Z,13.13
2018-05-24T11:49:37.763Z,12.40
2018-05-24T11:52:05.377Z,12.10
2018-05-24T11:54:32.786Z,9.23
2018-05-24T11:57:00.312Z,13.23
2018-05-24T11:59:27.823Z,12.97
2018-05-24T12:01:55.410Z,11.63
2018-05-24T12:04:22.882Z,12.13
2018-05-24T12:06:50.442Z,14.33
2018-05-24T12:09:17.995Z,9.90
2018-05-24T12:11:45.533Z,9.57
2018-05-24T12:14:13.037Z,9.63
2018-05-24T12:16:40.573Z,11.93
2018-05-24T12:19:08.857Z,13.43
2018-05-24T12:21:37.126Z,11.77
2018-05-24T12:24:05.462Z,11.37
2018-05-24T12:26:33.042Z,12.57
2018-05-24T12:29:00.570Z,13.80
2018-05-24T12:31:28.082Z,12.87
2018-05-24T12:33:55.595Z,13.13
2018-05-24T12:36:23.382Z,12.20
2018-05-24T12:38:50.913Z,13.13
2018-05-24T12:41:18.421Z,12.70
2018-05-24T12:43:47.002Z,9.60
2018-05-24T12:46:14.546Z,10.40
2018-05-24T12:48:42.045Z,9.60
2018-05-24T12:51:10.323Z,14.43
2018-05-24T12:53:37.865Z,12.43
2018-05-24T12:56:06.140Z,13.87
2018-05-24T12:58:33.646Z,13.03
2018-05-24T13:01:01.170Z,11.23
2018-05-24T13:03:29.243Z,15.57
2018-05-24T13:05:57.528Z,14.20
2018-05-24T13:08:25.052Z,16.10
2018-05-24T13:10:52.581Z,10.77
2018-05-24T13:13:20.098Z,15.93
2018-05-24T13:15:49.193Z,18.73
2018-05-24T13:18:17.529Z,16.67
2018-05-24T13:20:45.030Z,17.70
2018-05-24T13:23:13.327Z,15.27
2018-05-24T13:25:40.834Z,16.40
2018-05-24T13:28:08.350Z,19.03
2018-05-24T13:30:35.896Z,19.07
2018-05-24T13:33:03.502Z,18.30
2018-05-24T13:35:31.063Z,16.20
2018-05-24T13:37:58.597Z,18.97
2018-05-24T13:40:26.193Z,18.60
2018-05-24T13:42:53.630Z,16.37
2018-05-24T13:45:21.240Z,19.40
2018-05-24T13:47:48.669Z,23.33
2018-05-24T13:50:16.213Z,19.53
2018-05-24T13:52:43.802Z,15.67
2018-05-24T13:55:11.241Z,17.17
2018-05-24T13:57:45.263Z,22.73
2018-05-24T14:00:12.778Z,21.80
2018-05-24T14:02:41.226Z,22.53
2018-05-24T14:05:08.811Z,21.67
2018-05-24T14:07:36.376Z,21.20
2018-05-24T14:10:04.648Z,13.37
2018-05-24T14:12:32.937Z,20.87
2018-05-24T14:15:01.205Z,18.37
2018-05-24T14:17:28.819Z,22.90
2018-05-24T14:19:56.346Z,18.90
2018-05-24T14:22:23.870Z,19.23
2018-05-24T14:24:51.406Z,21.20
2018-05-24T14:27:18.941Z,20.60
2018-05-24T14:29:46.487Z,18.20
2018-05-24T14:32:14.014Z,16.90
2018-05-24T14:34:41.547Z,19.97
2018-05-24T14:37:09.069Z,17.77
2018-05-24T14:39:37.338Z,17.03
2018-05-24T14:42:05.653Z,14.97
2018-05-24T14:44:33.738Z,14.00
2018-05-24T14:47:01.238Z,15.43
2018-05-24T14:49:29.521Z,13.03
2018-05-24T14:51:57.818Z,11.37
2018-05-24T14:54:25.334Z,9.30
2018-05-24T14:56:52.878Z,8.60
2018-05-24T14:59:20.377Z,11.30
2018-05-24T15:01:48.653Z,10.37
2018-05-24T15:04:16.195Z,7.27
2018-05-24T15:06:43.696Z,8.17
2018-05-24T15:09:11.230Z,8.83
2018-05-24T15:11:38.769Z,10.83
2018-05-24T15:14:06.262Z,9.37
2018-05-24T15:16:33.778Z,9.27
2018-05-24T15:19:01.285Z,8.67
2018-05-24T15:21:29.546Z,8.93
2018-05-24T15:23:57.083Z,12.50
2018-05-24T15:26:24.634Z,13.53
2018-05-24T15:28:52.146Z,13.60
2018-05-24T15:31:19.671Z,10.80
2018-05-24T15:33:47.165Z,9.80
2018-05-24T15:36:14.699Z,11.87
2018-05-24T15:38:42.273Z,16.20
2018-05-24T15:41:09.833Z,14.80
2018-05-24T15:43:38.177Z,16.50
2018-05-24T15:46:05.665Z,16.83
2018-05-24T15:48:33.174Z,17.17
2018-05-24T15:51:00.702Z,18.30
2018-05-24T15:53:28.992Z,13.00
2018-05-24T15:55:56.503Z,14.77
2018-05-24T15:58:24.031Z,12.30
2018-05-24T16:00:52.306Z,13.50
2018-05-24T16:03:19.811Z,12.50
2018-05-24T16:05:47.407Z,12.67
2018-05-24T16:08:14.918Z,11.13
2018-05-24T16:10:42.454Z,10.47
2018-05-24T16:13:09.970Z,10.23
2018-05-24T16:15:38.591Z,9.37
2018-05-24T16:18:06.092Z,7.40
2018-05-24T16:20:33.629Z,9.60
2018-05-24T16:23:01.125Z,8.50
2018-05-24T16:25:28.634Z,9.10
2018-05-24T16:27:56.158Z,8.17
2018-05-24T16:30:24.435Z,8.97
2018-05-24T16:32:53.441Z,8.77
2018-05-24T16:35:21.768Z,8.53
2018-05-24T16:37:49.274Z,7.70
2018-05-24T16:40:16.808Z,9.67
2018-05-24T16:42:44.331Z,10.27
2018-05-24T16:45:11.848Z,10.33
2018-05-24T16:47:40.130Z,11.17
2018-05-24T16:50:08.424Z,7.27
2018-05-24T16:52:35.961Z,11.43
2018-05-24T16:55:03.503Z,9.83
2018-05-24T16:57:31.003Z,12.67
2018-05-24T16:59:58.557Z,18.43
2018-05-24T17:02:26.062Z,11.10
2018-05-24T17:04:53.595Z,12.27
2018-05-24T17:07:21.232Z,9.83
2018-05-24T17:09:48.790Z,11.37
2018-05-24T17:12:17.075Z,10.67
2018-05-24T17:14:44.690Z,10.30
2018-05-24T17:17:12.227Z,10.87
2018-05-24T17:19:39.750Z,11.60
2018-05-24T17:22:08.060Z,11.80
2018-05-24T17:24:36.329Z,11.40
2018-05-24T17:27:03.881Z,10.97
2018-05-24T17:29:32.208Z,11.53
2018-05-24T17:31:59.705Z,11.77
2018-05-24T17:34:27.983Z,10.93
2018-05-24T17:36:55.533Z,11.30
2018-05-24T17:39:23.074Z,11.07
2018-05-24T17:41:50.586Z,12.43
2018-05-24T17:44:18.932Z,11.83
2018-05-24T17:46:47.114Z,12.83
2018-05-24T17:49:15.076Z,10.43
2018-05-24T17:51:42.669Z,12.57
2018-05-24T17:54:10.190Z,11.43
2018-05-24T17:56:37.699Z,10.60
2018-05-24T17:59:05.992Z,11.23
2018-05-24T18:01:33.510Z,12.93
2018-05-24T18:04:01.791Z,12.30
2018-05-24T18:06:30.087Z,11.57
2018-05-24T18:08:57.599Z,11.47
2018-05-24T18:11:26.092Z,10.33
2018-05-24T18:13:53.671Z,10.77
2018-05-24T18:16:21.958Z,10.83
2018-05-24T18:18:50.265Z,10.10
2018-05-24T18:21:17.765Z,11.47
2018-05-24T18:23:45.509Z,10.27
2018-05-24T18:26:13.634Z,14.83
2018-05-24T18:28:41.169Z,9.87
2018-05-24T18:31:08.747Z,11.80
2018-05-24T18:33:36.282Z,9.67
2018-05-24T18:36:03.856Z,9.63
2018-05-24T18:38:31.370Z,10.13
2018-05-24T18:40:58.895Z,10.77
2018-05-24T18:43:27.183Z,11.80
2018-05-24T18:45:55.469Z,10.57
2018-05-24T18:48:23.007Z,10.23
2018-05-24T18:50:50.575Z,10.63
2018-05-24T18:53:18.071Z,11.00
2018-05-24T18:55:45.578Z,10.10
2018-05-24T18:58:13.114Z,10.23
2018-05-24T19:00:40.671Z,11.47
2018-05-24T19:03:08.195Z,11.87
2018-05-24T19:05:35.742Z,13.47
2018-05-24T19:08:04.057Z,17.50
2018-05-24T19:10:31.618Z,13.63
2018-05-24T19:12:59.369Z,13.03
2018-05-24T19:15:26.963Z,15.43
2018-05-24T19:17:54.519Z,14.73
2018-05-24T19:20:22.043Z,15.07
2018-05-24T19:22:50.381Z,14.70
2018-05-24T19:25:17.922Z,14.13
2018-05-24T19:27:45.443Z,14.43
2018-05-24T19:30:12.955Z,13.60
2018-05-24T19:32:40.496Z,13.33
2018-05-24T19:35:08.015Z,13.87
2018-05-24T19:37:36.300Z,14.03
2018-05-24T19:40:03.859Z,13.07
2018-05-24T19:42:32.135Z,15.17
2018-05-24T19:44:59.663Z,14.70
2018-05-24T19:47:27.249Z,15.20
2018-05-24T19:49:54.754Z,15.63
2018-05-24T19:52:22.262Z,15.77
2018-05-24T19:54:50.594Z,15.47
2018-05-24T19:57:18.091Z,14.87
2018-05-24T19:59:45.620Z,16.40
2018-05-24T20:02:13.204Z,18.60
2018-05-24T20:04:40.741Z,16.97
2018-05-24T20:07:08.286Z,17.23
2018-05-24T20:09:35.798Z,16.33
2018-05-24T20:12:03.896Z,17.03
2018-05-24T20:14:32.174Z,15.87
2018-05-24T20:16:59.742Z,17.10
2018-05-24T20:19:27.258Z,17.33
2018-05-24T20:21:54.770Z,17.23
2018-05-24T20:24:22.335Z,18.07
2018-05-24T20:26:49.839Z,17.90
2018-05-24T20:29:17.353Z,18.13
2018-05-24T20:31:44.898Z,17.60
2018-05-24T20:34:12.443Z,17.23
2018-05-24T20:36:40.592Z,17.73
2018-05-24T20:39:08.170Z,18.20
2018-05-24T20:41:35.702Z,17.87
2018-05-24T20:44:03.202Z,17.93
2018-05-24T20:46:30.779Z,17.77
2018-05-24T20:48:58.313Z,17.80
2018-05-24T20:51:25.827Z,17.73
2018-05-24T20:53:53.375Z,18.60
2018-05-24T20:56:20.948Z,18.97
2018-05-24T20:58:48.454Z,18.30
2018-05-24T21:01:16.866Z,16.87
2018-05-24T21:03:45.216Z,18.47
2018-05-24T21:06:12.729Z,18.60
2018-05-24T21:08:40.303Z,18.53
2018-05-24T21:11:07.822Z,19.03
2018-05-24T21:13:35.390Z,18.90
2018-05-24T21:16:02.977Z,18.83
2018-05-24T21:18:30.488Z,19.60
2018-05-24T21:20:58.778Z,18.87
2018-05-24T21:23:26.299Z,19.50
2018-05-24T21:25:53.807Z,19.20
2018-05-24T21:28:21.384Z,19.27
2018-05-24T21:30:48.896Z,19.53
2018-05-24T21:33:16.418Z,19.27
2018-05-24T21:35:43.958Z,19.10
2018-05-24T21:38:11.466Z,20.23
2018-05-24T21:40:38.978Z,21.80
2018-05-24T21:43:06.539Z,21.93
2018-05-24T21:45:34.103Z,22.93
2018-05-24T21:48:01.573Z,22.57
2018-05-24T21:50:29.097Z,23.93
2018-05-24T21:52:56.606Z,22.50
2018-05-24T21:55:24.117Z,24.17
2018-05-24T21:57:52.407Z,23.40
2018-05-24T22:00:19.965Z,22.53
2018-05-24T22:02:47.482Z,19.10
2018-05-24T22:05:15.025Z,20.60
2018-05-24T22:07:42.818Z,21.17
2018-05-24T22:10:10.337Z,21.20
2018-05-24T22:12:37.872Z,20.90
2018-05-24T22:15:05.999Z,21.10
2018-05-24T22:17:33.552Z,21.23
2018-05-24T22:20:01.103Z,21.57
2018-05-24T22:22:28.605Z,20.57
2018-05-24T22:24:56.874Z,21.73
2018-05-24T22:27:24.445Z,20.67
2018-05-24T22:29:52.732Z,20.60
2018-05-24T22:32:21.045Z,21.33
2018-05-24T22:34:48.582Z,20.77
2018-05-24T22:37:16.854Z,20.97
2018-05-24T22:39:44.369Z,20.70
2018-05-24T22:42:11.895Z,21.67
2018-05-24T22:44:39.469Z,20.67
2018-05-24T22:47:06.982Z,21.13
2018-05-24T22:49:35.298Z,20.93
2018-05-24T22:52:02.830Z,22.37
2018-05-24T22:54:31.122Z,22.00
2018-05-24T22:56:58.668Z,20.90
2018-05-24T22:59:26.257Z,22.07
2018-05-24T23:01:53.776Z,20.23
2018-05-24T23:04:21.323Z,23.77
2018-05-24T23:06:48.854Z,22.97
2018-05-24T23:09:16.380Z,21.27
2018-05-24T23:11:43.894Z,22.33
2018-05-24T23:14:11.484Z,22.73
2018-05-24T23:16:39.800Z,21.63
2018-05-24T23:19:07.309Z,22.97
2018-05-24T23:21:34.838Z,21.57
2018-05-24T23:24:02.345Z,22.10
2018-05-24T23:26:29.861Z,23.03
2018-05-24T23:28:57.423Z,23.07
2018-05-24T23:31:24.937Z,22.27
2018-05-24T23:33:52.469Z,23.10
2018-05-24T23:36:20.038Z,23.33
2018-05-24T23:38:47.578Z,23.43
2018-05-24T23:41:15.090Z,22.37
2018-05-24T23:43:42.614Z,22.23
2018-05-24T23:46:10.146Z,23.13
2018-05-24T23:48:37.662Z,22.30
2018-05-24T23:51:05.937Z,23.50
2018-05-24T23:53:34.240Z,23.30
2018-05-24T23:56:01.761Z,23.73
2018-05-24T23:58:29.370Z,22.40
